Flight Number: EUR2429 Duration: 6:00
Departure: Casablanca Int'l (GMMN) at 06:00 Distance: 2562 Nm
Arrival: Jeddah King Abdul Aziz (OEJN) at 12:00 Equipment: B757-200

Weather Information
Nouasseur, Morocco (GMMN) 33-22N 007-35W 206M Sep 21, 2017 - 10:00 AM EDT / 2017.09.21 1400 UTC
Wind: from the NW (320 degrees) at 13 MPH (11 KT) (direction variable):0
Visibility: greater than 7 mile(s):0 Temperature: 78 F (26 C) Dew Point: 62 F (17 C) Relative Humidity: 57% Pressure (altimeter): 30.00 in. Hg (1016 hPa)
ob: GMMN 211400Z 32011KT 290V350 CAVOK 26/17 Q1016 NOSIG cycle: 14
Sunrise: 06:21 Sunset: 18:25 (UTC)

Jeddah King Abdul Aziz International Airport , Saudi Arabia (OEJN) 21-42N 039-11E 17M Sep 21, 2017 - 10:00 AM EDT / 2017.09.21 1400 UTC
Wind: from the NNW (330 degrees) at 16 MPH (14 KT):0
Visibility: greater than 7 mile(s):0 Temperature: 93 F (34 C) Heat index: 104.5 F (40.3 C):1 Dew Point: 75 F (24 C) Relative Humidity: 56% Pressure (altimeter): 29.65 in. Hg (1004 hPa)
ob: OEJN 211400Z 33014KT CAVOK 34/24 Q1004 NOSIG cycle: 14
Sunrise: 03:14 Sunset: 15:18 (UTC)

TAF:2017/09/21 12:30 TAF OEJN 211100Z 2112/2218 32006G16KT 8000 FEW040 2118/2120 36010KT

This route has never been flown.

Route map